Waterloo, Illinois
Current Conditions -  °F | °C
As of 2:32 PM on Wednesday 26 Nov 2014 (Local Time) from KCPS Reporting Station
Moderate Snow Moderate Snow  
Wind Chill: 33°   Ceiling: 500
Heat Index: 33°   Visibility: 0.5mi
Dew Point: 32°   Wind: 0mph
Humidity: 96%   Direction: NA
Pressure: 30"   Gusts: NA
Location:  38.33°N, 90.15°W
Report Text: KCPS 262032Z 00000KT 1/2SM SN FG VV005 01/00 A3000 RMK AO2 P0005 T00060000
Loading
Personal Weather Stations






























Interactive Weather Map New forecast layout! Learn more

10-Day Weather Forecast

Advertisements
Track Severe Weather on mobile